Wetterdaten: Woche 06.03.17 - 12.03.17 (KW10)
Datum Zeit Temperatur Luftfeuchte Luftdruck Niederschlag Windrichtung Sonnenschein Solar Wind
06.03.2017 00:00 3,2 C 92 % 1004,0 hPa 0,0 l/m W-SW 0,00 h 0 W/m 21,0 km/h (4 Bft)
06.03.2017 01:00 2,9 C 92 % 1005,1 hPa 0,0 l/m SW 0,00 h 0 W/m 24,5 km/h (4 Bft)
06.03.2017 02:00 2,8 C 92 % 1005,6 hPa 0,0 l/m W-SW 0,00 h 0 W/m 26,5 km/h (4 Bft)
06.03.2017 03:00 2,7 C 93 % 1005,8 hPa 0,0 l/m SW 0,00 h 0 W/m 16,2 km/h (3 Bft)
06.03.2017 04:00 2,4 C 94 % 1005,9 hPa 0,0 l/m W-SW 0,00 h 0 W/m 19,7 km/h (3 Bft)
06.03.2017 05:00 1,8 C 94 % 1006,0 hPa 0,0 l/m SW 0,00 h 0 W/m 18,0 km/h (3 Bft)
06.03.2017 06:00 1,7 C 95 % 1006,1 hPa 0,4 l/m SW 0,00 h 0 W/m 18,0 km/h (3 Bft)
06.03.2017 07:00 1,5 C 96 % 1005,9 hPa 0,4 l/m SW 0,00 h 21 W/m 15,3 km/h (3 Bft)
06.03.2017 08:00 2,6 C 96 % 1005,4 hPa 0,2 l/m W-SW 0,50 h 174 W/m 18,1 km/h (3 Bft)
06.03.2017 09:00 4,2 C 92 % 1004,7 hPa 0,0 l/m W-SW 0,42 h 227 W/m 21,8 km/h (4 Bft)
06.03.2017 10:00 4,5 C 92 % 1004,1 hPa 0,0 l/m W-SW 0,17 h 251 W/m 21,3 km/h (4 Bft)
06.03.2017 11:00 6,4 C 81 % 1002,9 hPa 0,0 l/m W-SW 0,50 h 374 W/m 29,1 km/h (5 Bft)
06.03.2017 12:00 6,8 C 73 % 1001,6 hPa 0,0 l/m W-NW 0,25 h 285 W/m 26,6 km/h (4 Bft)
06.03.2017 13:00 6,9 C 74 % 1000,5 hPa 0,0 l/m W-SW 0,00 h 190 W/m 21,2 km/h (4 Bft)
06.03.2017 14:00 6,5 C 79 % 999,1 hPa 0,0 l/m SW 0,00 h 162 W/m 16,1 km/h (3 Bft)
06.03.2017 15:00 6,5 C 80 % 998,3 hPa 0,0 l/m W-SW 0,00 h 48 W/m 13,3 km/h (3 Bft)
06.03.2017 16:00 4,3 C 89 % 999,2 hPa 4,4 l/m W-SW 0,00 h 14 W/m 17,0 km/h (3 Bft)
06.03.2017 17:00 2,4 C 94 % 999,8 hPa 3,8 l/m N 0,00 h 9 W/m 0,4 km/h (0 Bft)
06.03.2017 18:00 2,3 C 96 % 1000,5 hPa 1,4 l/m N 0,00 h 0 W/m 1,3 km/h (1 Bft)
06.03.2017 19:00 2,2 C 96 % 1001,6 hPa 1,0 l/m W-SW 0,00 h 0 W/m 2,8 km/h (1 Bft)
06.03.2017 20:00 2,1 C 96 % 1002,4 hPa 0,4 l/m W-SW 0,00 h 0 W/m 2,0 km/h (1 Bft)
06.03.2017 21:00 2,0 C 96 % 1003,6 hPa 0,0 l/m NW 0,00 h 0 W/m 3,9 km/h (1 Bft)
06.03.2017 22:00 2,2 C 97 % 1005,0 hPa 0,0 l/m W 0,00 h 0 W/m 11,7 km/h (2 Bft)
06.03.2017 23:00 2,4 C 97 % 1006,4 hPa 0,0 l/m W 0,00 h 0 W/m 12,1 km/h (2 Bft)
07.03.2017 00:00 2,7 C 96 % 1007,4 hPa 0,0 l/m W 0,00 h 0 W/m 16,9 km/h (3 Bft)
07.03.2017 01:00 2,5 C 96 % 1008,3 hPa 0,2 l/m W-SW 0,00 h 0 W/m 18,6 km/h (3 Bft)
07.03.2017 02:00 2,4 C 96 % 1008,9 hPa 0,4 l/m W 0,00 h 0 W/m 17,6 km/h (3 Bft)
07.03.2017 03:00 2,2 C 95 % 1009,2 hPa 0,2 l/m W 0,00 h 0 W/m 19,7 km/h (3 Bft)
07.03.2017 04:00 2,2 C 96 % 1009,8 hPa 0,4 l/m W 0,00 h 0 W/m 15,6 km/h (3 Bft)
07.03.2017 05:00 2,2 C 96 % 1010,4 hPa 0,0 l/m W 0,00 h 0 W/m 14,5 km/h (3 Bft)
07.03.2017 06:00 2,2 C 96 % 1010,7 hPa 0,0 l/m W 0,00 h 7 W/m 15,6 km/h (3 Bft)
07.03.2017 07:00 2,0 C 96 % 1011,2 hPa 0,0 l/m W 0,17 h 42 W/m 19,3 km/h (3 Bft)
07.03.2017 08:00 2,4 C 96 % 1012,3 hPa 0,0 l/m W 0,08 h 108 W/m 13,0 km/h (3 Bft)
07.03.2017 09:00 3,1 C 94 % 1013,1 hPa 0,2 l/m W 0,17 h 125 W/m 15,2 km/h (3 Bft)
07.03.2017 10:00 3,4 C 93 % 1013,6 hPa 0,0 l/m W 0,00 h 174 W/m 16,4 km/h (3 Bft)
07.03.2017 11:00 3,6 C 92 % 1014,0 hPa 0,4 l/m W 0,00 h 180 W/m 16,8 km/h (3 Bft)
07.03.2017 12:00 3,4 C 94 % 1014,4 hPa 0,6 l/m W-NW 0,00 h 126 W/m 13,2 km/h (3 Bft)
07.03.2017 13:00 3,9 C 94 % 1014,5 hPa 0,0 l/m W 0,17 h 239 W/m 12,1 km/h (2 Bft)
07.03.2017 14:00 4,5 C 91 % 1014,8 hPa 0,4 l/m W-NW 0,17 h 160 W/m 12,2 km/h (2 Bft)
07.03.2017 15:00 4,8 C 91 % 1015,4 hPa 0,0 l/m W-NW 0,33 h 221 W/m 11,1 km/h (2 Bft)
07.03.2017 16:00 4,9 C 88 % 1016,2 hPa 0,4 l/m W-NW 0,42 h 174 W/m 20,5 km/h (4 Bft)
07.03.2017 17:00 4,0 C 90 % 1017,2 hPa 0,0 l/m W 0,00 h 28 W/m 6,2 km/h (2 Bft)
07.03.2017 18:00 3,7 C 92 % 1018,4 hPa 0,0 l/m W 0,00 h 7 W/m 3,7 km/h (1 Bft)
07.03.2017 19:00 3,5 C 92 % 1018,8 hPa 0,0 l/m W 0,00 h 0 W/m 2,9 km/h (1 Bft)
07.03.2017 20:00 3,3 C 92 % 1019,3 hPa 0,0 l/m W 0,00 h 0 W/m 5,5 km/h (1 Bft)
07.03.2017 21:00 3,0 C 92 % 1019,8 hPa 0,0 l/m W 0,00 h 0 W/m 3,1 km/h (1 Bft)
07.03.2017 22:00 2,8 C 92 % 1020,5 hPa 0,0 l/m N 0,00 h 0 W/m 0,0 km/h (0 Bft)
07.03.2017 23:00 2,7 C 93 % 1021,2 hPa 0,0 l/m W 0,00 h 0 W/m 10,2 km/h (2 Bft)
08.03.2017 00:00 2,7 C 93 % 1021,7 hPa 0,0 l/m W 0,00 h 0 W/m 0,9 km/h (0 Bft)
08.03.2017 01:00 2,3 C 94 % 1022,1 hPa 0,0 l/m W 0,00 h 0 W/m 1,1 km/h (0 Bft)
08.03.2017 02:00 2,0 C 94 % 1022,3 hPa 0,0 l/m W 0,00 h 0 W/m 4,2 km/h (1 Bft)
08.03.2017 03:00 1,4 C 95 % 1022,1 hPa 0,0 l/m W-SW 0,00 h 0 W/m 2,7 km/h (1 Bft)
08.03.2017 04:00 1,4 C 96 % 1022,6 hPa 0,0 l/m N 0,00 h 0 W/m 0,4 km/h (0 Bft)
08.03.2017 05:00 1,8 C 96 % 1022,9 hPa 0,0 l/m N 0,00 h 0 W/m 0,0 km/h (0 Bft)
08.03.2017 06:00 1,7 C 96 % 1023,6 hPa 0,0 l/m N 0,00 h 7 W/m 0,0 km/h (0 Bft)
08.03.2017 07:00 1,4 C 97 % 1023,6 hPa 0,0 l/m W-SW 0,08 h 42 W/m 1,2 km/h (1 Bft)
08.03.2017 08:00 2,0 C 98 % 1023,9 hPa 0,0 l/m SW 0,08 h 124 W/m 8,7 km/h (2 Bft)
08.03.2017 09:00 3,2 C 95 % 1023,8 hPa 0,0 l/m SW 0,25 h 192 W/m 12,0 km/h (2 Bft)
08.03.2017 10:00 4,6 C 89 % 1023,4 hPa 0,0 l/m SW 0,92 h 343 W/m 15,8 km/h (3 Bft)
08.03.2017 11:00 6,0 C 81 % 1022,4 hPa 0,0 l/m SW 0,67 h 345 W/m 16,6 km/h (3 Bft)
08.03.2017 12:00 6,7 C 75 % 1022,1 hPa 0,0 l/m SW 0,67 h 363 W/m 18,6 km/h (3 Bft)
08.03.2017 13:00 7,3 C 70 % 1021,8 hPa 0,0 l/m SW 0,50 h 322 W/m 18,5 km/h (3 Bft)
08.03.2017 14:00 7,6 C 66 % 1021,4 hPa 0,0 l/m W-SW 0,25 h 244 W/m 19,2 km/h (3 Bft)
08.03.2017 15:00 6,5 C 72 % 1021,3 hPa 0,2 l/m W-SW 0,00 h 94 W/m 27,1 km/h (4 Bft)
08.03.2017 16:00 4,4 C 86 % 1020,8 hPa 0,6 l/m SW 0,00 h 37 W/m 24,1 km/h (4 Bft)
08.03.2017 17:00 3,8 C 92 % 1020,1 hPa 1,0 l/m SW 0,00 h 16 W/m 22,1 km/h (4 Bft)
08.03.2017 18:00 3,6 C 95 % 1020,5 hPa 1,4 l/m SW 0,00 h 0 W/m 25,3 km/h (4 Bft)
08.03.2017 19:00 3,8 C 96 % 1020,0 hPa 0,2 l/m SW 0,00 h 0 W/m 25,2 km/h (4 Bft)
08.03.2017 20:00 4,4 C 97 % 1020,1 hPa 0,4 l/m SW 0,00 h 0 W/m 31,3 km/h (5 Bft)
08.03.2017 21:00 5,0 C 97 % 1019,8 hPa 0,0 l/m W-SW 0,00 h 0 W/m 24,9 km/h (4 Bft)
08.03.2017 22:00 5,3 C 97 % 1020,0 hPa 0,0 l/m W-SW 0,00 h 0 W/m 16,6 km/h (3 Bft)
08.03.2017 23:00 5,7 C 97 % 1020,0 hPa 0,0 l/m SW 0,00 h 0 W/m 18,0 km/h (3 Bft)
09.03.2017 00:00 6,1 C 97 % 1019,7 hPa 0,0 l/m W-SW 0,00 h 0 W/m 27,0 km/h (4 Bft)
09.03.2017 01:00 6,5 C 96 % 1019,5 hPa 0,2 l/m W-SW 0,00 h 0 W/m 27,5 km/h (4 Bft)
09.03.2017 02:00 6,8 C 97 % 1019,4 hPa 0,0 l/m W-SW 0,00 h 0 W/m 24,7 km/h (4 Bft)
09.03.2017 03:00 7,0 C 97 % 1019,4 hPa 0,0 l/m W-SW 0,00 h 0 W/m 21,4 km/h (4 Bft)
09.03.2017 04:00 7,2 C 97 % 1019,6 hPa 0,0 l/m W-SW 0,00 h 0 W/m 19,3 km/h (3 Bft)
09.03.2017 05:00 7,5 C 97 % 1019,5 hPa 0,0 l/m W-SW 0,00 h 0 W/m 23,3 km/h (4 Bft)
09.03.2017 06:00 7,6 C 97 % 1019,9 hPa 1,2 l/m W-SW 0,00 h 0 W/m 20,8 km/h (4 Bft)
09.03.2017 07:00 7,6 C 97 % 1020,2 hPa 0,0 l/m W-SW 0,00 h 23 W/m 24,0 km/h (4 Bft)
09.03.2017 08:00 7,8 C 97 % 1020,2 hPa 0,0 l/m W-SW 0,00 h 55 W/m 22,1 km/h (4 Bft)
09.03.2017 09:00 8,1 C 98 % 1020,0 hPa 1,2 l/m W-SW 0,00 h 81 W/m 23,0 km/h (4 Bft)
09.03.2017 10:00 8,2 C 98 % 1019,9 hPa 2,0 l/m W-SW 0,00 h 74 W/m 18,4 km/h (3 Bft)
09.03.2017 11:00 8,4 C 98 % 1019,9 hPa 1,6 l/m W-SW 0,00 h 97 W/m 19,3 km/h (3 Bft)
09.03.2017 12:00 8,7 C 97 % 1019,7 hPa 1,2 l/m W-SW 0,00 h 142 W/m 17,6 km/h (3 Bft)
09.03.2017 13:00 9,4 C 97 % 1019,2 hPa 0,2 l/m W-SW 0,00 h 223 W/m 19,7 km/h (3 Bft)
09.03.2017 14:00 9,6 C 97 % 1019,2 hPa 1,0 l/m W 0,00 h 141 W/m 16,9 km/h (3 Bft)
09.03.2017 15:00 9,6 C 97 % 1019,1 hPa 0,6 l/m W-SW 0,00 h 114 W/m 16,4 km/h (3 Bft)
09.03.2017 16:00 9,6 C 97 % 1019,3 hPa 0,6 l/m W-SW 0,00 h 63 W/m 13,3 km/h (3 Bft)
09.03.2017 17:00 9,6 C 97 % 1019,6 hPa 0,2 l/m SW 0,00 h 40 W/m 11,3 km/h (2 Bft)
09.03.2017 18:00 9,2 C 97 % 1019,9 hPa 0,0 l/m W-SW 0,00 h 7 W/m 14,0 km/h (3 Bft)
09.03.2017 19:00 8,8 C 97 % 1020,2 hPa 0,0 l/m SW 0,00 h 0 W/m 13,4 km/h (3 Bft)
09.03.2017 20:00 8,4 C 97 % 1020,7 hPa 0,0 l/m SW 0,00 h 0 W/m 16,5 km/h (3 Bft)
09.03.2017 21:00 8,2 C 97 % 1020,6 hPa 0,2 l/m W-SW 0,00 h 0 W/m 17,8 km/h (3 Bft)
09.03.2017 22:00 8,0 C 97 % 1020,8 hPa 0,0 l/m W-SW 0,00 h 0 W/m 15,7 km/h (3 Bft)
09.03.2017 23:00 7,7 C 97 % 1021,3 hPa 0,0 l/m W-SW 0,00 h 0 W/m 14,2 km/h (3 Bft)
10.03.2017 00:00 7,6 C 97 % 1021,7 hPa 0,0 l/m W-SW 0,00 h 0 W/m 11,4 km/h (2 Bft)
10.03.2017 01:00 7,2 C 97 % 1022,1 hPa 0,0 l/m W-SW 0,00 h 0 W/m 10,3 km/h (2 Bft)
10.03.2017 02:00 6,6 C 96 % 1022,3 hPa 0,0 l/m W-NW 0,00 h 0 W/m 18,1 km/h (3 Bft)
10.03.2017 03:00 6,4 C 93 % 1022,7 hPa 0,0 l/m W-NW 0,00 h 0 W/m 13,7 km/h (3 Bft)
10.03.2017 04:00 5,7 C 91 % 1023,0 hPa 0,0 l/m NW 0,00 h 0 W/m 4,9 km/h (1 Bft)
10.03.2017 05:00 4,4 C 91 % 1023,7 hPa 0,0 l/m W-NW 0,00 h 0 W/m 2,9 km/h (1 Bft)
10.03.2017 06:00 3,9 C 93 % 1023,9 hPa 0,2 l/m W-NW 0,08 h 8 W/m 9,1 km/h (2 Bft)
10.03.2017 07:00 4,3 C 93 % 1024,4 hPa 0,0 l/m W-NW 0,25 h 55 W/m 12,9 km/h (3 Bft)
10.03.2017 08:00 5,1 C 91 % 1025,3 hPa 0,0 l/m N-NO 0,75 h 217 W/m 6,7 km/h (2 Bft)
10.03.2017 09:00 6,1 C 88 % 1025,5 hPa 0,0 l/m N-NO 0,58 h 291 W/m 7,7 km/h (2 Bft)
10.03.2017 10:00 7,2 C 80 % 1025,6 hPa 0,0 l/m N 0,75 h 444 W/m 12,4 km/h (3 Bft)
10.03.2017 11:00 8,0 C 73 % 1025,6 hPa 0,0 l/m N-NO 0,83 h 551 W/m 10,9 km/h (2 Bft)
10.03.2017 12:00 9,0 C 69 % 1025,4 hPa 0,0 l/m N-NW 1,00 h 613 W/m 10,6 km/h (2 Bft)
10.03.2017 13:00 9,8 C 64 % 1024,7 hPa 0,0 l/m N-NO 0,92 h 548 W/m 9,7 km/h (2 Bft)
10.03.2017 14:00 10,8 C 56 % 1024,0 hPa 0,0 l/m N-NO 1,00 h 517 W/m 9,0 km/h (2 Bft)
10.03.2017 15:00 11,1 C 52 % 1023,8 hPa 0,0 l/m N-NW 1,00 h 376 W/m 10,2 km/h (2 Bft)
10.03.2017 16:00 11,1 C 44 % 1023,5 hPa 0,0 l/m N-NW 1,00 h 214 W/m 12,8 km/h (3 Bft)
10.03.2017 17:00 10,0 C 46 % 1023,7 hPa 0,0 l/m N 0,00 h 44 W/m 11,5 km/h (2 Bft)
10.03.2017 18:00 7,3 C 61 % 1024,2 hPa 0,0 l/m N 0,00 h 9 W/m 2,1 km/h (1 Bft)
10.03.2017 19:00 5,1 C 71 % 1024,8 hPa 0,0 l/m N 0,00 h 0 W/m 1,1 km/h (0 Bft)
10.03.2017 20:00 4,3 C 74 % 1025,3 hPa 0,0 l/m N 0,00 h 0 W/m 0,0 km/h (0 Bft)
10.03.2017 21:00 3,3 C 78 % 1025,4 hPa 0,0 l/m N 0,00 h 0 W/m 0,0 km/h (0 Bft)
10.03.2017 22:00 2,1 C 82 % 1025,4 hPa 0,0 l/m N 0,00 h 0 W/m 0,0 km/h (0 Bft)
10.03.2017 23:00 1,3 C 86 % 1025,1 hPa 0,0 l/m N 0,00 h 0 W/m 0,4 km/h (0 Bft)
11.03.2017 00:00 0,9 C 88 % 1024,9 hPa 0,0 l/m N 0,00 h 0 W/m 0,7 km/h (0 Bft)
11.03.2017 01:00 0,4 C 89 % 1024,7 hPa 0,0 l/m N 0,00 h 0 W/m 0,0 km/h (0 Bft)
11.03.2017 02:00 -0,0 C 91 % 1024,5 hPa 0,0 l/m N 0,00 h 0 W/m 0,0 km/h (0 Bft)
11.03.2017 03:00 -0,5 C 92 % 1024,1 hPa 0,0 l/m N 0,00 h 0 W/m 0,0 km/h (0 Bft)
11.03.2017 04:00 -0,9 C 92 % 1023,9 hPa 0,0 l/m N 0,00 h 0 W/m 0,0 km/h (0 Bft)
11.03.2017 05:00 -1,3 C 93 % 1023,4 hPa 0,0 l/m N 0,00 h 0 W/m 0,0 km/h (0 Bft)
11.03.2017 06:00 -1,6 C 93 % 1023,1 hPa 0,0 l/m N 0,08 h 11 W/m 1,3 km/h (1 Bft)
11.03.2017 07:00 -1,4 C 94 % 1023,3 hPa 0,0 l/m N 0,33 h 62 W/m 3,6 km/h (1 Bft)
11.03.2017 08:00 -0,5 C 95 % 1023,1 hPa 0,0 l/m N 1,00 h 255 W/m 2,3 km/h (1 Bft)
11.03.2017 09:00 2,5 C 88 % 1022,6 hPa 0,0 l/m N 1,00 h 422 W/m 2,1 km/h (1 Bft)
11.03.2017 10:00 6,2 C 75 % 1021,9 hPa 0,0 l/m N 1,00 h 537 W/m 1,6 km/h (1 Bft)
11.03.2017 11:00 9,2 C 59 % 1021,4 hPa 0,0 l/m NO 1,00 h 611 W/m 2,8 km/h (1 Bft)
11.03.2017 12:00 11,0 C 51 % 1020,6 hPa 0,0 l/m O 1,00 h 543 W/m 6,3 km/h (2 Bft)
11.03.2017 13:00 11,3 C 54 % 1019,9 hPa 0,0 l/m O-NO 0,08 h 268 W/m 5,4 km/h (1 Bft)
11.03.2017 14:00 11,3 C 55 % 1019,2 hPa 0,0 l/m O-NO 0,42 h 281 W/m 7,2 km/h (2 Bft)
11.03.2017 15:00 11,7 C 48 % 1018,7 hPa 0,0 l/m O-NO 0,50 h 219 W/m 8,8 km/h (2 Bft)
11.03.2017 16:00 11,3 C 49 % 1018,5 hPa 0,0 l/m O 0,00 h 104 W/m 5,2 km/h (1 Bft)
11.03.2017 17:00 10,0 C 60 % 1018,2 hPa 0,0 l/m N 0,00 h 40 W/m 0,4 km/h (0 Bft)
11.03.2017 18:00 8,2 C 65 % 1018,2 hPa 0,0 l/m N 0,00 h 9 W/m 0,1 km/h (0 Bft)
11.03.2017 19:00 7,0 C 69 % 1018,4 hPa 0,0 l/m O 0,00 h 0 W/m 3,6 km/h (1 Bft)
11.03.2017 20:00 5,6 C 72 % 1018,3 hPa 0,0 l/m N 0,00 h 0 W/m 1,2 km/h (1 Bft)
11.03.2017 21:00 4,2 C 77 % 1018,0 hPa 0,0 l/m N 0,00 h 0 W/m 0,8 km/h (0 Bft)
11.03.2017 22:00 3,6 C 80 % 1018,1 hPa 0,0 l/m O-NO 0,00 h 0 W/m 5,8 km/h (1 Bft)
11.03.2017 23:00 3,3 C 81 % 1017,9 hPa 0,0 l/m NO 0,00 h 0 W/m 3,3 km/h (1 Bft)
12.03.2017 00:00 2,7 C 83 % 1017,4 hPa 0,0 l/m N 0,00 h 0 W/m 0,0 km/h (0 Bft)
12.03.2017 01:00 2,0 C 85 % 1016,9 hPa 0,0 l/m N 0,00 h 0 W/m 0,8 km/h (0 Bft)
12.03.2017 02:00 1,4 C 86 % 1016,7 hPa 0,0 l/m N 0,00 h 0 W/m 0,5 km/h (0 Bft)
12.03.2017 03:00 0,8 C 88 % 1016,0 hPa 0,0 l/m N 0,00 h 0 W/m 0,9 km/h (0 Bft)
12.03.2017 04:00 0,2 C 89 % 1015,5 hPa 0,0 l/m N 0,00 h 0 W/m 1,5 km/h (1 Bft)
12.03.2017 05:00 -0,3 C 90 % 1015,3 hPa 0,0 l/m N 0,00 h 0 W/m 0,5 km/h (0 Bft)
12.03.2017 06:00 -0,7 C 92 % 1015,2 hPa 0,0 l/m N 0,08 h 12 W/m 0,1 km/h (0 Bft)
12.03.2017 07:00 -0,8 C 93 % 1015,2 hPa 0,0 l/m N-NO 0,42 h 68 W/m 1,7 km/h (1 Bft)
12.03.2017 08:00 0,8 C 93 % 1015,4 hPa 0,0 l/m N-NO 0,92 h 249 W/m 4,0 km/h (1 Bft)
12.03.2017 09:00 3,3 C 85 % 1015,3 hPa 0,0 l/m NO 1,00 h 420 W/m 11,0 km/h (2 Bft)
12.03.2017 10:00 6,0 C 75 % 1014,9 hPa 0,0 l/m O-NO 1,00 h 533 W/m 10,6 km/h (2 Bft)
12.03.2017 11:00 9,3 C 58 % 1014,4 hPa 0,0 l/m O-NO 1,00 h 618 W/m 10,3 km/h (2 Bft)
12.03.2017 12:00 11,0 C 49 % 1013,9 hPa 0,0 l/m O-NO 1,00 h 635 W/m 15,0 km/h (3 Bft)
12.03.2017 13:00 11,9 C 44 % 1013,3 hPa 0,0 l/m NO 1,00 h 600 W/m 17,3 km/h (3 Bft)
12.03.2017 14:00 12,7 C 45 % 1012,8 hPa 0,0 l/m O-NO 1,00 h 515 W/m 17,4 km/h (3 Bft)
12.03.2017 15:00 12,7 C 47 % 1012,4 hPa 0,0 l/m NO 1,00 h 383 W/m 16,6 km/h (3 Bft)
12.03.2017 16:00 12,0 C 48 % 1012,2 hPa 0,0 l/m O-NO 1,00 h 215 W/m 16,6 km/h (3 Bft)
12.03.2017 17:00 10,7 C 53 % 1012,4 hPa 0,0 l/m O-NO 0,00 h 61 W/m 13,3 km/h (3 Bft)
12.03.2017 18:00 8,8 C 60 % 1013,0 hPa 0,0 l/m O 0,08 h 12 W/m 5,2 km/h (1 Bft)
12.03.2017 19:00 7,0 C 64 % 1013,8 hPa 0,0 l/m O 0,00 h 0 W/m 4,0 km/h (1 Bft)
12.03.2017 20:00 5,8 C 68 % 1014,4 hPa 0,0 l/m O-NO 0,00 h 0 W/m 6,8 km/h (2 Bft)
12.03.2017 21:00 4,8 C 72 % 1015,0 hPa 0,0 l/m NO 0,00 h 0 W/m 7,9 km/h (2 Bft)
12.03.2017 22:00 3,6 C 76 % 1015,5 hPa 0,0 l/m NO 0,00 h 0 W/m 4,0 km/h (1 Bft)
12.03.2017 23:00 2,9 C 78 % 1016,1 hPa 0,0 l/m NO 0,00 h 0 W/m 4,4 km/h (1 Bft)
Min-Datum _ 11.03.17 12.03.17 06.03.17 - - - - 06.03.17
_ Min-Zeit 06:45 13:55 15:20 - - - - 17:00
Minimum _ -1,8 C 42 % 998,0 hPa - - - - 0,0 km/h (0 Bft)
Max-Datum _ 12.03.17 08.03.17 10.03.17 06.03.17 - 06.03.17 11.03.17 06.03.17
_ Max-Zeit 14:30 08:20 10:15 16:35 - 08:20 12:20 11:20
Maximum _ 12,8 C 98 % 1025,7 hPa 4,4 l/m - 0,08 h 784 W/m 37,0 km/h
SW (5 Bft)
Durchschnitt _ 5,0 C 85 % 1017,0 hPa #29,4 l/m W-SW #30:50 h 208 W/m 11,3 km/h (2 Bft)